Main page
METAR-TAF:

METAR-TAF

Airports :

Wellsville Municipal Airport

Wellsville, New York, United States

latitude: 42-06-27N, longitude: 077-59-04W, elevation: 647 m

Current weather observation

The report was made 1 hour and 7 minutes ago, at 16:56 UTC
Wind 3 kt from variable directions
Temperature 24°C
Humidity 65%
Pressure 1021 hPa
Visibility: 16.1 km
Few clouds at a height of 3700 ft
Scattered clouds at a height of 4400 ft
Broken clouds at a height of 8500 ft

METAR: KELZ 231656Z AUTO VRB03KT 10SM FEW037 SCT044 BKN085 24/17 A3014 RMK AO2 SLP194 T02440167

Time: 14:03 (18:03 UTC)


TAF: missing

Weather observations and forecasts of more than 4000 airports (METAR and TAF reports).

The available stations are represented by yellow and red dots on the map.

Hover mouse over dot to see the name of the station.

Then click to see weather observations and forecasts.

To change the map : click on the green buttons with a black cross to zoom in, on the green button with a dash to zoom out, or on the green arrows for adjacent maps.


METAR-TAF: